Time;durP1;ratioP1;P1;durP2;ratioP2;P2;SDS_P1;SDS_P2;PMS_P1;PMS_P2;Temp;Humidity;BMP_temperature;BMP_pressure;BME280_temperature;BME280_humidity;BME280_pressure;Samples;Min_cycle;Max_cycle;Signal;HPM_P1;HPM_P2
2023/08/25 00:02:15;;;;;;;5.65;2.83;;;19.40;99.90;;;;;;5032747;28;20555;-52
2023/08/25 00:04:42;;;;;;;6.68;2.80;;;19.40;99.90;;;;;;5036756;28;20025;-55
2023/08/25 00:07:08;;;;;;;5.05;3.10;;;19.40;99.90;;;;;;5034609;28;20041;-53
2023/08/25 00:09:34;;;;;;;4.53;3.05;;;19.40;99.90;;;;;;5031910;28;20398;-51
2023/08/25 00:11:59;;;;;;;5.65;3.20;;;19.50;99.90;;;;;;5033148;28;20121;-50
2023/08/25 00:14:25;;;;;;;6.30;3.30;;;19.50;99.90;;;;;;5031661;28;20017;-51
2023/08/25 00:16:51;;;;;;;6.97;3.58;;;19.50;99.90;;;;;;5031956;28;20107;-52
2023/08/25 00:19:17;;;;;;;6.32;2.90;;;19.50;99.90;;;;;;5032438;28;20033;-54
2023/08/25 00:21:44;;;;;;;8.25;3.10;;;19.50;99.90;;;;;;5031759;28;20398;-52
2023/08/25 00:24:10;;;;;;;6.63;3.20;;;19.60;99.90;;;;;;5032629;28;20116;-51
2023/08/25 00:26:37;;;;;;;6.10;2.50;;;19.70;99.90;;;;;;5032250;28;20060;-50
2023/08/25 00:29:03;;;;;;;7.63;2.88;;;19.70;99.90;;;;;;5031855;28;20029;-51
2023/08/25 00:31:29;;;;;;;5.97;3.00;;;19.70;99.90;;;;;;5014556;28;20034;-53
2023/08/25 00:33:54;;;;;;;7.32;3.05;;;19.70;99.90;;;;;;5032086;28;20025;-50
2023/08/25 00:36:20;;;;;;;5.18;2.75;;;19.70;99.90;;;;;;5032113;28;20470;-51
2023/08/25 00:38:46;;;;;;;8.07;3.15;;;19.70;99.90;;;;;;5014371;28;20128;-51
2023/08/25 00:41:12;;;;;;;5.60;2.70;;;19.80;99.90;;;;;;5014380;28;20033;-51
2023/08/25 00:43:39;;;;;;;5.53;2.80;;;19.70;99.90;;;;;;5014059;28;20125;-50
2023/08/25 00:46:05;;;;;;;7.00;3.00;;;19.70;99.90;;;;;;5014243;28;20124;-54
2023/08/25 00:48:31;;;;;;;4.97;2.72;;;19.70;99.90;;;;;;5030603;28;20115;-49
2023/08/25 00:50:57;;;;;;;4.70;2.53;;;19.70;99.90;;;;;;5014690;28;20037;-49
2023/08/25 00:53:24;;;;;;;6.43;3.25;;;19.70;99.90;;;;;;5013983;28;20025;-51
2023/08/25 00:55:50;;;;;;;8.45;3.05;;;19.70;99.90;;;;;;5014393;28;20033;-51
2023/08/25 00:58:16;;;;;;;7.35;2.97;;;19.80;99.90;;;;;;5014165;28;20120;-52
2023/08/25 01:00:44;;;;;;;5.03;2.95;;;19.80;99.90;;;;;;5032312;28;20087;-52
2023/08/25 01:03:10;;;;;;;5.03;2.50;;;19.80;99.90;;;;;;5014227;28;20263;-54
2023/08/25 01:05:36;;;;;;;4.28;2.60;;;19.70;99.90;;;;;;4998426;28;20371;-55
2023/08/25 01:08:05;;;;;;;5.20;2.70;;;19.60;99.90;;;;;;5031354;28;20080;-52
2023/08/25 01:10:45;;;;;;;6.30;3.50;;;19.70;99.90;;;;;;5014039;28;20033;-50
2023/08/25 01:13:20;;;;;;;7.40;3.50;;;19.70;99.90;;;;;;5031610;28;20033;-50
2023/08/25 01:15:48;;;;;;;4.70;2.85;;;19.70;99.90;;;;;;5014506;28;20068;-51
2023/08/25 01:18:25;;;;;;;5.78;3.25;;;19.70;99.90;;;;;;5031737;28;20394;-52
2023/08/25 01:20:52;;;;;;;5.28;2.97;;;19.70;99.90;;;;;;5016923;28;20103;-50
2023/08/25 01:23:50;;;;;;;7.20;3.15;;;19.60;99.90;;;;;;5036017;28;20026;-51
2023/08/25 01:26:18;;;;;;;4.55;2.50;;;19.60;99.90;;;;;;5035916;28;20502;-49
2023/08/25 01:28:50;;;;;;;6.57;3.20;;;19.50;99.90;;;;;;5017977;28;20041;-51
2023/08/25 01:31:15;;;;;;;5.20;3.00;;;19.50;99.90;;;;;;5035510;28;20087;-51
2023/08/25 01:33:45;;;;;;;6.43;3.22;;;19.50;99.90;;;;;;5017970;28;20045;-50
2023/08/25 01:36:23;;;;;;;6.07;2.85;;;19.50;99.90;;;;;;5035728;28;20083;-54
2023/08/25 01:39:10;;;;;;;6.32;3.22;;;19.50;99.90;;;;;;5018030;28;20438;-50
2023/08/25 01:41:45;;;;;;;5.32;2.90;;;19.50;99.90;;;;;;5034906;28;20037;-52
2023/08/25 01:44:14;;;;;;;6.80;3.00;;;19.50;99.90;;;;;;5017793;28;20033;-50
2023/08/25 01:46:43;;;;;;;6.82;2.88;;;19.50;99.90;;;;;;5018541;28;20130;-49
2023/08/25 01:49:09;;;;;;;5.80;2.97;;;19.50;99.90;;;;;;5033558;28;20040;-51
2023/08/25 01:51:35;;;;;;;6.32;2.80;;;19.50;99.90;;;;;;5034903;28;20043;-54
2023/08/25 01:54:01;;;;;;;5.05;2.72;;;19.50;99.90;;;;;;5035250;28;20030;-51
2023/08/25 01:56:28;;;;;;;5.80;2.80;;;19.40;99.90;;;;;;5035332;28;20026;-50
2023/08/25 01:58:53;;;;;;;4.57;2.45;;;19.50;99.90;;;;;;5016892;28;20454;-50
2023/08/25 02:01:19;;;;;;;5.57;3.22;;;19.50;99.90;;;;;;5017349;28;20113;-52
2023/08/25 02:03:45;;;;;;;4.13;2.60;;;19.50;99.90;;;;;;5017453;28;20033;-50
2023/08/25 02:06:11;;;;;;;5.18;2.92;;;19.50;99.90;;;;;;5017368;28;20116;-51
2023/08/25 02:08:37;;;;;;;6.50;3.35;;;19.50;99.90;;;;;;5034950;28;20080;-50
2023/08/25 02:11:04;;;;;;;4.63;2.80;;;19.50;99.90;;;;;;5017237;28;20120;-50
2023/08/25 02:13:29;;;;;;;7.80;3.70;;;19.50;99.90;;;;;;5017137;28;20025;-50
2023/08/25 02:15:55;;;;;;;5.68;3.35;;;19.50;99.90;;;;;;5017151;28;20033;-54
2023/08/25 02:18:24;;;;;;;8.55;3.28;;;19.50;99.90;;;;;;5034821;28;20201;-52
2023/08/25 02:20:49;;;;;;;6.22;3.08;;;19.50;99.90;;;;;;5016982;28;20068;-51
2023/08/25 02:23:15;;;;;;;4.78;2.60;;;19.50;99.90;;;;;;5016943;28;20040;-53
2023/08/25 02:25:41;;;;;;;6.20;3.30;;;19.40;99.90;;;;;;5034913;28;20035;-51
2023/08/25 02:28:07;;;;;;;5.45;3.30;;;19.40;99.90;;;;;;5035081;28;20036;-52
2023/08/25 02:30:32;;;;;;;4.72;3.05;;;19.30;99.90;;;;;;5034548;28;20025;-50
2023/08/25 02:32:59;;;;;;;6.47;3.17;;;19.20;99.90;;;;;;5016157;28;20475;-50
2023/08/25 02:35:24;;;;;;;5.22;3.17;;;19.10;99.90;;;;;;5034213;28;20026;-53
2023/08/25 02:37:57;;;;;;;4.57;2.67;;;19.00;99.90;;;;;;5034623;28;20032;-49
2023/08/25 02:40:25;;;;;;;5.65;2.45;;;19.00;99.90;;;;;;5016844;28;20075;-53
2023/08/25 02:42:51;;;;;;;5.55;2.85;;;18.90;99.90;;;;;;5016553;28;20124;-48
2023/08/25 02:45:17;;;;;;;5.85;2.75;;;18.80;99.90;;;;;;5016627;28;20485;-50
2023/08/25 02:47:43;;;;;;;5.00;2.83;;;18.80;99.90;;;;;;5016437;28;20087;-51
2023/08/25 02:50:09;;;;;;;6.72;2.75;;;18.70;99.90;;;;;;5016572;28;20040;-50
2023/08/25 02:52:34;;;;;;;5.65;2.95;;;18.70;99.90;;;;;;5033120;28;20071;-50
2023/08/25 02:55:00;;;;;;;5.55;3.05;;;18.60;99.90;;;;;;5016741;28;20037;-51
2023/08/25 02:57:26;;;;;;;5.97;3.63;;;18.60;99.90;;;;;;5034390;28;20088;-50
2023/08/25 02:59:53;;;;;;;5.72;3.60;;;18.50;99.90;;;;;;5016230;28;20027;-52
2023/08/25 03:02:18;;;;;;;6.05;3.22;;;18.50;99.90;;;;;;5016077;28;20474;-49
2023/08/25 03:04:44;;;;;;;6.38;3.33;;;18.50;99.90;;;;;;5015987;28;20029;-51
2023/08/25 03:07:10;;;;;;;5.95;3.15;;;18.40;99.90;;;;;;5016324;28;20453;-53
2023/08/25 03:09:37;;;;;;;6.85;3.63;;;18.40;99.90;;;;;;5015915;28;20037;-50
2023/08/25 03:12:03;;;;;;;5.35;2.88;;;18.30;99.90;;;;;;5015697;28;20094;-51
2023/08/25 03:14:29;;;;;;;6.80;3.00;;;18.30;99.90;;;;;;5016212;28;20033;-52
2023/08/25 03:16:56;;;;;;;4.80;2.88;;;18.20;99.90;;;;;;5015906;28;20021;-52
2023/08/25 03:19:21;;;;;;;7.97;3.55;;;18.20;99.90;;;;;;5032398;28;20083;-50
2023/08/25 03:21:47;;;;;;;7.28;3.22;;;18.20;99.90;;;;;;5015567;28;20049;-51
2023/08/25 03:24:13;;;;;;;5.70;3.25;;;18.20;99.90;;;;;;5032784;28;20044;-52
2023/08/25 03:26:38;;;;;;;5.28;3.25;;;18.10;99.90;;;;;;5015714;28;20030;-53
2023/08/25 03:29:05;;;;;;;6.53;2.97;;;18.10;99.90;;;;;;5015602;28;20474;-54
2023/08/25 03:31:32;;;;;;;7.38;3.20;;;18.10;99.90;;;;;;5032898;28;20028;-52
2023/08/25 03:33:58;;;;;;;7.70;3.47;;;18.10;99.90;;;;;;5015282;28;20073;-54
2023/08/25 03:36:23;;;;;;;4.82;3.00;;;18.00;99.90;;;;;;5015490;28;20516;-49
2023/08/25 03:38:50;;;;;;;8.25;2.90;;;18.00;99.90;;;;;;5014778;28;20045;-51
2023/08/25 03:41:16;;;;;;;6.22;3.25;;;18.00;99.90;;;;;;5033176;28;20497;-48
2023/08/25 03:43:44;;;;;;;6.13;3.50;;;17.90;99.90;;;;;;5015254;28;20033;-50
2023/08/25 03:46:10;;;;;;;5.93;3.30;;;17.90;99.90;;;;;;5015307;28;20488;-50
2023/08/25 03:48:35;;;;;;;6.22;3.28;;;17.90;99.90;;;;;;5015218;28;20101;-49
2023/08/25 03:51:01;;;;;;;5.07;3.50;;;17.80;99.90;;;;;;5015105;28;20540;-51
2023/08/25 03:53:28;;;;;;;5.00;3.10;;;17.80;99.90;;;;;;5032886;28;20030;-53
2023/08/25 03:55:55;;;;;;;6.00;3.20;;;17.80;99.90;;;;;;5015301;28;20056;-50
2023/08/25 03:58:20;;;;;;;6.00;3.05;;;17.80;99.90;;;;;;5023135;28;20049;-54
2023/08/25 04:00:54;;;;;;;5.63;2.95;;;17.80;99.90;;;;;;4995438;28;20038;-52
2023/08/25 04:03:20;;;;;;;6.63;3.28;;;17.70;99.90;;;;;;5012812;28;20474;-50
2023/08/25 04:05:46;;;;;;;7.82;3.28;;;17.70;99.90;;;;;;5013410;28;20226;-52
2023/08/25 04:08:12;;;;;;;4.10;2.72;;;17.70;99.90;;;;;;4995346;28;20030;-51
2023/08/25 04:10:39;;;;;;;6.20;3.35;;;17.70;99.90;;;;;;4995263;28;20034;-53
2023/08/25 04:13:10;;;;;;;4.78;2.83;;;17.60;99.90;;;;;;4995171;28;20133;-53
2023/08/25 04:15:36;;;;;;;5.20;3.20;;;17.60;99.90;;;;;;4994714;28;20068;-54
2023/08/25 04:18:02;;;;;;;6.05;3.53;;;17.70;99.90;;;;;;4994240;28;20030;-50
2023/08/25 04:20:28;;;;;;;7.95;3.42;;;17.60;99.90;;;;;;4995134;28;20034;-53
2023/08/25 04:22:54;;;;;;;8.77;3.75;;;17.60;99.90;;;;;;4995614;28;20029;-50
2023/08/25 04:25:20;;;;;;;6.00;3.10;;;17.60;99.90;;;;;;4995617;28;20045;-51
2023/08/25 04:27:46;;;;;;;6.47;3.45;;;17.60;99.90;;;;;;4995756;28;20092;-52
2023/08/25 04:30:12;;;;;;;6.75;2.92;;;17.60;99.90;;;;;;4995816;28;20037;-55
2023/08/25 04:32:39;;;;;;;5.70;2.80;;;17.50;99.90;;;;;;4994621;28;20489;-50
2023/08/25 04:35:07;;;;;;;5.07;2.72;;;17.50;99.90;;;;;;4996768;28;20271;-53
2023/08/25 04:37:35;;;;;;;6.10;3.20;;;17.50;99.90;;;;;;4995741;28;20084;-51
2023/08/25 04:40:02;;;;;;;10.43;3.45;;;17.50;99.90;;;;;;4995866;28;20494;-50
2023/08/25 04:42:28;;;;;;;5.07;2.85;;;17.40;99.90;;;;;;4995976;28;20160;-54
2023/08/25 04:44:54;;;;;;;6.22;2.88;;;17.40;99.90;;;;;;4996165;28;20096;-52
2023/08/25 04:47:20;;;;;;;6.43;3.72;;;17.40;99.90;;;;;;4995856;28;20113;-52
2023/08/25 04:49:48;;;;;;;7.00;3.38;;;17.40;99.90;;;;;;4995942;28;20062;-50
2023/08/25 04:52:14;;;;;;;8.68;3.40;;;17.40;99.90;;;;;;4995308;28;20522;-53
2023/08/25 04:54:41;;;;;;;6.07;3.22;;;17.30;99.90;;;;;;4996631;28;20061;-52
2023/08/25 04:57:07;;;;;;;4.22;2.65;;;17.30;99.90;;;;;;5017419;28;20129;-50
2023/08/25 04:59:33;;;;;;;5.35;3.15;;;17.30;99.90;;;;;;5017139;28;20326;-53
2023/08/25 05:01:58;;;;;;;8.95;3.65;;;17.40;99.90;;;;;;4999643;28;20037;-53
2023/08/25 05:04:25;;;;;;;4.80;2.90;;;17.40;99.90;;;;;;4999964;28;20033;-53
2023/08/25 05:06:50;;;;;;;6.25;3.60;;;17.40;99.90;;;;;;4984070;28;20032;-53
2023/08/25 05:09:17;;;;;;;6.57;3.45;;;17.50;99.90;;;;;;4983383;28;20041;-50
2023/08/25 05:11:43;;;;;;;6.45;3.72;;;17.50;99.90;;;;;;4999775;28;20383;-52
2023/08/25 05:14:08;;;;;;;5.82;3.08;;;17.50;99.90;;;;;;4999151;28;20030;-55
2023/08/25 05:16:34;;;;;;;7.40;3.50;;;17.50;99.90;;;;;;4999407;28;20037;-54
2023/08/25 05:19:03;;;;;;;6.90;3.15;;;17.50;99.90;;;;;;4999406;28;20034;-53
2023/08/25 05:21:32;;;;;;;7.20;3.25;;;17.50;99.90;;;;;;4999089;28;20026;-52
2023/08/25 05:24:21;;;;;;;8.50;3.17;;;17.60;99.90;;;;;;4999196;28;20509;-54
2023/08/25 05:26:51;;;;;;;7.15;3.22;;;17.60;99.90;;;;;;4999374;28;20038;-52
2023/08/25 05:29:25;;;;;;;6.75;3.75;;;17.60;99.90;;;;;;4998754;28;20033;-54
2023/08/25 05:31:52;;;;;;;7.63;3.58;;;17.70;99.90;;;;;;4998578;28;20056;-54
2023/08/25 05:34:36;;;;;;;6.25;3.33;;;17.80;99.90;;;;;;5016528;28;20038;-54
2023/08/25 05:37:05;;;;;;;8.38;3.53;;;17.80;99.90;;;;;;4998679;28;20061;-54
2023/08/25 05:39:31;;;;;;;7.88;3.60;;;18.00;99.90;;;;;;4998561;28;20422;-53
2023/08/25 05:41:56;;;;;;;5.75;3.35;;;18.00;99.90;;;;;;5016127;28;20033;-54
2023/08/25 05:44:23;;;;;;;5.18;3.20;;;18.10;99.90;;;;;;4998508;28;20119;-54
2023/08/25 05:46:48;;;;;;;7.28;3.63;;;18.10;99.90;;;;;;4998462;28;20029;-52
2023/08/25 05:49:14;;;;;;;7.28;3.65;;;18.10;99.90;;;;;;4998120;28;20572;-53
2023/08/25 05:51:40;;;;;;;6.20;3.42;;;18.20;99.90;;;;;;4997049;28;20056;-56
2023/08/25 05:54:05;;;;;;;6.10;3.30;;;18.20;99.90;;;;;;4996319;28;20049;-56
2023/08/25 05:56:31;;;;;;;8.35;3.78;;;18.30;99.90;;;;;;4996541;28;20032;-55
2023/08/25 05:59:00;;;;;;;5.03;3.25;;;18.40;99.90;;;;;;4996635;28;20029;-58
2023/08/25 06:01:26;;;;;;;8.07;3.72;;;18.50;99.90;;;;;;5020146;28;20045;-54
2023/08/25 06:03:52;;;;;;;6.60;3.78;;;18.60;99.90;;;;;;5033549;28;20034;-55
2023/08/25 06:06:17;;;;;;;5.00;2.90;;;18.80;99.90;;;;;;5032822;28;20129;-49
2023/08/25 06:08:43;;;;;;;5.53;2.83;;;18.90;99.90;;;;;;5035064;28;20453;-50
2023/08/25 06:11:08;;;;;;;5.88;2.78;;;19.00;99.90;;;;;;5034024;28;20026;-50
2023/08/25 06:13:35;;;;;;;4.82;2.40;;;19.10;99.90;;;;;;5034218;28;20053;-48
2023/08/25 06:16:00;;;;;;;5.00;2.60;;;19.20;99.90;;;;;;5033740;28;20026;-51
2023/08/25 06:18:26;;;;;;;7.25;2.92;;;19.30;99.90;;;;;;5033534;28;20556;-51
2023/08/25 06:20:52;;;;;;;4.55;2.65;;;19.50;99.90;;;;;;5033572;28;20033;-49
2023/08/25 06:23:18;;;;;;;7.43;2.80;;;19.60;99.90;;;;;;5016836;28;20036;-48
2023/08/25 06:25:44;;;;;;;4.20;2.72;;;19.60;99.90;;;;;;5001033;28;20034;-57
2023/08/25 06:28:09;;;;;;;4.55;2.58;;;19.70;99.90;;;;;;5032784;28;20025;-49
2023/08/25 06:30:35;;;;;;;6.10;3.00;;;19.80;99.90;;;;;;5033107;28;20025;-52
2023/08/25 06:33:02;;;;;;;6.80;3.45;;;19.80;99.90;;;;;;5015281;28;20030;-49
2023/08/25 06:35:27;;;;;;;5.10;2.80;;;20.00;99.90;;;;;;5032842;28;20160;-48
2023/08/25 06:37:53;;;;;;;7.28;2.95;;;20.10;99.90;;;;;;5032603;28;20112;-51
2023/08/25 06:40:19;;;;;;;5.90;3.05;;;20.10;99.90;;;;;;5032987;28;20040;-53
2023/08/25 06:42:44;;;;;;;6.10;3.35;;;20.00;99.90;;;;;;5032544;28;20029;-53
2023/08/25 06:45:11;;;;;;;8.68;2.95;;;20.10;99.90;;;;;;5032613;28;20087;-53
2023/08/25 06:47:38;;;;;;;6.95;3.05;;;20.20;99.90;;;;;;5032972;28;20541;-52
2023/08/25 06:50:05;;;;;;;5.22;3.30;;;20.40;99.90;;;;;;5032817;28;20036;-54
2023/08/25 06:52:31;;;;;;;7.65;3.78;;;20.40;99.90;;;;;;5032731;28;20100;-52
2023/08/25 06:54:57;;;;;;;5.82;3.40;;;20.50;99.90;;;;;;5032689;28;20029;-52
2023/08/25 06:57:23;;;;;;;9.23;4.68;;;20.50;99.90;;;;;;5032605;28;20057;-54
2023/08/25 06:59:49;;;;;;;5.47;3.17;;;20.40;99.90;;;;;;5029634;28;20056;-51
2023/08/25 07:02:15;;;;;;;7.00;3.63;;;20.30;99.90;;;;;;5030405;28;20088;-52
2023/08/25 07:04:41;;;;;;;5.28;3.30;;;20.10;99.90;;;;;;5030082;28;20025;-54
2023/08/25 07:07:06;;;;;;;4.85;2.70;;;20.10;99.90;;;;;;5030454;28;20482;-54
2023/08/25 07:09:32;;;;;;;7.80;3.83;;;20.00;99.90;;;;;;5030141;28;20120;-50
2023/08/25 07:11:58;;;;;;;7.30;3.83;;;19.90;99.90;;;;;;5012319;28;20038;-52
2023/08/25 07:14:24;;;;;;;7.75;3.70;;;19.90;99.90;;;;;;5012808;28;20025;-49
2023/08/25 07:16:49;;;;;;;6.22;3.70;;;20.00;99.90;;;;;;5030853;28;20021;-52
2023/08/25 07:19:16;;;;;;;8.27;3.92;;;20.00;99.90;;;;;;5031390;28;20394;-54
2023/08/25 07:21:42;;;;;;;6.13;3.42;;;19.90;99.90;;;;;;5031830;28;20038;-53
2023/08/25 07:24:08;;;;;;;9.00;3.33;;;19.80;99.90;;;;;;5031976;28;20037;-53
2023/08/25 07:26:34;;;;;;;7.00;3.97;;;19.80;99.90;;;;;;5032180;28;20066;-53
2023/08/25 07:28:59;;;;;;;8.68;3.95;;;19.90;99.90;;;;;;5031858;28;20038;-53
2023/08/25 07:31:25;;;;;;;6.18;3.50;;;19.80;99.90;;;;;;5031866;28;20037;-53
2023/08/25 07:33:51;;;;;;;7.32;3.88;;;19.70;99.90;;;;;;5031831;28;20021;-51
2023/08/25 07:36:19;;;;;;;35.90;19.48;;;19.70;99.90;;;;;;5031922;28;20053;-52
2023/08/25 07:38:45;;;;;;;25.83;14.20;;;19.80;99.90;;;;;;5031756;28;20075;-50
2023/08/25 07:41:13;;;;;;;30.58;16.10;;;19.80;99.90;;;;;;5031797;28;20069;-54
2023/08/25 07:43:38;;;;;;;14.80;8.20;;;19.70;99.90;;;;;;5031673;28;20466;-53
2023/08/25 07:46:04;;;;;;;14.20;8.18;;;19.70;99.90;;;;;;5031839;28;20088;-53
2023/08/25 07:48:30;;;;;;;13.82;7.13;;;19.60;99.90;;;;;;5031565;28;20025;-54
2023/08/25 07:50:55;;;;;;;7.03;4.05;;;19.60;99.90;;;;;;5031847;28;20473;-54
2023/08/25 07:53:21;;;;;;;8.98;4.50;;;19.50;99.90;;;;;;5031283;28;20021;-54
2023/08/25 07:55:47;;;;;;;8.23;4.68;;;19.50;99.90;;;;;;5031373;28;20512;-54
2023/08/25 07:58:13;;;;;;;11.55;5.18;;;19.50;99.90;;;;;;5031081;28;20017;-51
2023/08/25 08:00:39;;;;;;;7.35;4.88;;;19.50;99.90;;;;;;5031592;28;20444;-54
2023/08/25 08:03:09;;;;;;;11.35;5.03;;;19.40;99.90;;;;;;5031085;28;20029;-54
2023/08/25 08:05:35;;;;;;;11.00;5.13;;;19.30;99.90;;;;;;5031434;28;20425;-54
2023/08/25 08:08:01;;;;;;;10.43;5.22;;;19.30;99.90;;;;;;5031179;28;20033;-53
2023/08/25 08:10:27;;;;;;;10.40;5.20;;;19.30;99.90;;;;;;5031135;28;20038;-53
2023/08/25 08:12:53;;;;;;;16.98;8.50;;;19.30;99.90;;;;;;5030874;28;20367;-53
2023/08/25 08:15:18;;;;;;;9.93;6.30;;;19.30;99.90;;;;;;5031205;28;20307;-53
2023/08/25 08:17:44;;;;;;;12.35;6.45;;;19.20;99.90;;;;;;5030941;28;20033;-53
2023/08/25 08:20:13;;;;;;;13.00;7.32;;;19.10;99.90;;;;;;5031354;28;20040;-50
2023/08/25 08:22:40;;;;;;;16.17;7.60;;;19.10;99.90;;;;;;5030929;28;20030;-51
2023/08/25 08:25:10;;;;;;;11.07;5.72;;;19.00;99.90;;;;;;5030955;28;20112;-52
2023/08/25 08:27:36;;;;;;;12.02;6.40;;;19.00;99.90;;;;;;5030713;28;20041;-48
2023/08/25 08:30:03;;;;;;;11.52;5.85;;;19.00;99.90;;;;;;5030348;28;20373;-54
2023/08/25 08:32:28;;;;;;;13.00;6.22;;;19.00;99.90;;;;;;5030444;28;20029;-54
2023/08/25 08:34:55;;;;;;;12.07;6.63;;;19.00;99.90;;;;;;5013091;28;20051;-52
2023/08/25 08:37:21;;;;;;;11.90;5.95;;;18.90;99.90;;;;;;5030844;28;20096;-54
2023/08/25 08:39:47;;;;;;;11.65;6.30;;;18.90;99.90;;;;;;5030590;28;20056;-51
2023/08/25 08:42:14;;;;;;;11.65;7.13;;;19.00;99.90;;;;;;5012976;28;20163;-51
2023/08/25 08:44:46;;;;;;;13.07;6.95;;;19.00;99.90;;;;;;5012935;28;20083;-54
2023/08/25 08:47:11;;;;;;;12.38;7.55;;;19.00;99.90;;;;;;5030732;28;20433;-54
2023/08/25 08:49:39;;;;;;;14.35;7.82;;;18.90;99.90;;;;;;5030561;28;20108;-53
2023/08/25 08:52:06;;;;;;;13.75;7.70;;;18.90;99.90;;;;;;5030395;28;20060;-51
2023/08/25 08:54:35;;;;;;;13.48;8.30;;;18.90;99.90;;;;;;5030514;28;20079;-50
2023/08/25 08:57:01;;;;;;;13.60;7.82;;;18.90;99.90;;;;;;5030787;28;20390;-54
2023/08/25 08:59:26;;;;;;;15.40;7.97;;;18.90;99.90;;;;;;5030495;28;20037;-51
2023/08/25 09:01:53;;;;;;;13.95;7.30;;;18.90;99.90;;;;;;5030375;28;20068;-51
2023/08/25 09:04:22;;;;;;;13.98;8.45;;;18.90;99.90;;;;;;5030370;28;20034;-49
2023/08/25 09:06:52;;;;;;;14.63;7.32;;;19.00;99.90;;;;;;5030438;28;20510;-54
2023/08/25 09:09:19;;;;;;;14.18;8.10;;;19.10;99.90;;;;;;5030335;28;20038;-53
2023/08/25 09:11:48;;;;;;;11.88;7.25;;;19.10;99.90;;;;;;5030193;28;20037;-49
2023/08/25 09:14:28;;;;;;;17.80;8.20;;;19.10;99.90;;;;;;5030314;28;20404;-52
2023/08/25 09:16:59;;;;;;;11.93;6.40;;;19.10;99.90;;;;;;5030312;28;20025;-50
2023/08/25 09:19:29;;;;;;;12.57;7.35;;;19.10;99.90;;;;;;5030503;28;20171;-52
2023/08/25 09:21:55;;;;;;;14.55;7.13;;;19.10;99.90;;;;;;5030237;28;20030;-54
2023/08/25 09:24:22;;;;;;;9.52;6.25;;;19.20;99.90;;;;;;5030348;28;20030;-49
2023/08/25 09:26:49;;;;;;;10.52;6.10;;;19.10;99.90;;;;;;5030510;28;20033;-53
2023/08/25 09:29:14;;;;;;;10.27;5.68;;;19.10;99.90;;;;;;5030497;28;20040;-54
2023/08/25 09:31:41;;;;;;;9.55;5.32;;;18.90;99.90;;;;;;5030194;28;20056;-54
2023/08/25 09:34:08;;;;;;;8.95;4.95;;;19.00;99.90;;;;;;5013494;28;20036;-52
2023/08/25 09:36:52;;;;;;;7.65;3.72;;;19.00;99.90;;;;;;5030778;28;20486;-51
2023/08/25 09:39:19;;;;;;;9.23;4.43;;;18.80;99.90;;;;;;5030293;28;20475;-52
2023/08/25 09:41:46;;;;;;;9.07;4.40;;;18.70;99.90;;;;;;5032497;28;20236;-54
2023/08/25 09:44:12;;;;;;;8.05;4.40;;;18.60;99.90;;;;;;5033689;28;20033;-53
2023/08/25 09:46:38;;;;;;;7.55;4.25;;;18.50;99.90;;;;;;5033905;28;20091;-55
2023/08/25 09:49:05;;;;;;;8.20;4.38;;;18.40;99.90;;;;;;5033649;28;20029;-54
2023/08/25 09:51:35;;;;;;;7.47;3.85;;;18.40;99.90;;;;;;5016046;28;20033;-55
2023/08/25 09:54:08;;;;;;;15.98;8.10;;;18.40;99.90;;;;;;5033583;28;20029;-49
2023/08/25 09:56:35;;;;;;;11.88;5.20;;;18.50;99.90;;;;;;5033650;28;20076;-51
2023/08/25 09:59:02;;;;;;;11.18;5.13;;;18.50;99.90;;;;;;5033422;28;20108;-51
2023/08/25 10:01:28;;;;;;;10.20;4.50;;;18.50;99.90;;;;;;5033377;28;20034;-52
2023/08/25 10:03:55;;;;;;;7.85;4.40;;;18.40;99.90;;;;;;5033439;28;20098;-53
2023/08/25 10:06:22;;;;;;;8.02;4.32;;;18.40;99.90;;;;;;5033783;28;20474;-55
2023/08/25 10:08:48;;;;;;;10.80;4.88;;;18.40;99.90;;;;;;5015783;28;20104;-52
2023/08/25 10:11:17;;;;;;;10.18;5.00;;;18.40;99.90;;;;;;5033446;28;20112;-55
2023/08/25 10:13:45;;;;;;;10.50;4.60;;;18.50;99.90;;;;;;5033649;28;20350;-54
2023/08/25 10:16:12;;;;;;;10.05;4.88;;;18.50;99.90;;;;;;5034076;28;20474;-50
2023/08/25 10:18:43;;;;;;;9.05;4.40;;;18.50;99.90;;;;;;5016581;28;20483;-55
2023/08/25 10:21:10;;;;;;;7.70;3.75;;;18.50;99.90;;;;;;5034244;28;20041;-54
2023/08/25 10:23:37;;;;;;;5.80;3.33;;;18.40;99.90;;;;;;5033555;28;20025;-54
2023/08/25 10:26:04;;;;;;;7.53;3.13;;;18.30;99.90;;;;;;5033884;28;20108;-54
2023/08/25 10:28:30;;;;;;;7.65;3.42;;;18.30;99.90;;;;;;5033283;28;20041;-55
2023/08/25 10:30:56;;;;;;;9.75;3.70;;;18.20;99.90;;;;;;5033594;28;20120;-55
2023/08/25 10:33:22;;;;;;;11.60;3.47;;;18.20;99.90;;;;;;5033052;28;20061;-52
2023/08/25 10:35:48;;;;;;;8.00;3.30;;;18.30;99.90;;;;;;5033401;28;20036;-54
2023/08/25 10:38:21;;;;;;;4.85;3.00;;;18.30;99.90;;;;;;5033825;28;20095;-53
2023/08/25 10:40:55;;;;;;;6.95;2.97;;;18.30;99.90;;;;;;5033372;28;20040;-54
2023/08/25 10:43:25;;;;;;;5.80;2.85;;;18.20;99.90;;;;;;5033287;28;20087;-51
2023/08/25 10:45:51;;;;;;;4.65;2.13;;;18.20;99.90;;;;;;5015667;28;20065;-51
2023/08/25 10:48:19;;;;;;;4.35;2.20;;;18.20;99.90;;;;;;5033360;28;20561;-52
2023/08/25 10:50:45;;;;;;;5.50;2.38;;;18.10;99.90;;;;;;5033091;28;20089;-51
2023/08/25 10:53:42;;;;;;;4.43;2.25;;;18.10;99.90;;;;;;5032484;28;20462;-53
2023/08/25 10:56:21;;;;;;;6.63;2.83;;;18.10;99.90;;;;;;5033282;28;20029;-51
2023/08/25 10:59:02;;;;;;;5.68;2.72;;;18.10;99.90;;;;;;5033240;28;20033;-52
2023/08/25 11:01:33;;;;;;;6.47;3.10;;;18.00;99.90;;;;;;5033694;28;20033;-51
2023/08/25 11:04:06;;;;;;;4.82;2.92;;;18.00;99.90;;;;;;5032979;28;20069;-52
2023/08/25 11:06:39;;;;;;;7.88;3.05;;;18.10;99.90;;;;;;5032826;28;20040;-50
2023/08/25 11:09:05;;;;;;;5.63;2.75;;;18.20;99.90;;;;;;5032499;28;20097;-51
2023/08/25 11:11:33;;;;;;;7.00;2.70;;;18.20;99.90;;;;;;5032361;28;20125;-49
2023/08/25 11:13:59;;;;;;;9.50;3.50;;;18.20;99.90;;;;;;5032661;28;20030;-50
2023/08/25 11:16:25;;;;;;;4.05;2.38;;;18.30;99.90;;;;;;5032355;28;20087;-51
2023/08/25 11:18:51;;;;;;;7.00;3.50;;;18.30;99.90;;;;;;5032085;28;20053;-49
2023/08/25 11:21:16;;;;;;;6.78;3.20;;;18.30;99.90;;;;;;5032180;28;20044;-53
2023/08/25 11:23:44;;;;;;;8.55;3.53;;;18.30;99.90;;;;;;5032065;28;20033;-50
2023/08/25 11:26:15;;;;;;;6.25;2.95;;;18.30;99.90;;;;;;5014356;28;20099;-52
2023/08/25 11:28:41;;;;;;;6.50;2.92;;;18.40;99.90;;;;;;5031779;28;20033;-51
2023/08/25 11:31:07;;;;;;;6.90;3.08;;;18.40;99.90;;;;;;5032279;28;20036;-51
2023/08/25 11:33:33;;;;;;;9.95;3.67;;;18.50;99.90;;;;;;5032045;28;20308;-55
2023/08/25 11:36:00;;;;;;;6.28;3.17;;;18.60;99.90;;;;;;5032353;28;20034;-54
2023/08/25 11:38:29;;;;;;;8.25;4.07;;;18.60;99.90;;;;;;5032100;28;20025;-53
2023/08/25 11:40:55;;;;;;;7.22;3.88;;;18.60;99.90;;;;;;5032377;28;20042;-50
2023/08/25 11:43:26;;;;;;;6.10;3.45;;;18.60;99.90;;;;;;5032079;28;20163;-54
2023/08/25 11:45:52;;;;;;;6.63;3.22;;;18.60;99.90;;;;;;5032218;28;20421;-54
2023/08/25 11:48:17;;;;;;;6.90;3.42;;;18.70;99.90;;;;;;5032103;28;20049;-55
2023/08/25 11:50:43;;;;;;;7.70;3.30;;;18.70;99.90;;;;;;5032095;28;20033;-53
2023/08/25 11:53:09;;;;;;;8.07;4.10;;;18.80;99.90;;;;;;5031851;28;20466;-55
2023/08/25 11:55:35;;;;;;;6.18;3.47;;;18.90;99.90;;;;;;5031868;28;20053;-51
2023/08/25 11:58:07;;;;;;;6.72;3.45;;;19.00;99.90;;;;;;5031499;28;20034;-50
2023/08/25 12:00:39;;;;;;;9.18;3.53;;;19.40;99.90;;;;;;5031662;28;20466;-50
2023/08/25 12:03:05;;;;;;;6.13;3.03;;;19.60;99.90;;;;;;5031506;28;20029;-52
2023/08/25 12:05:35;;;;;;;4.68;2.22;;;19.70;99.90;;;;;;5030626;28;20041;-51
2023/08/25 12:08:02;;;;;;;4.72;2.38;;;19.80;99.90;;;;;;5031204;28;20112;-53
2023/08/25 12:10:28;;;;;;;4.47;2.30;;;19.90;99.90;;;;;;5031528;28;20034;-51
2023/08/25 12:12:53;;;;;;;5.32;2.30;;;20.00;99.90;;;;;;5031094;28;20551;-55
2023/08/25 12:15:19;;;;;;;4.45;2.17;;;20.10;99.90;;;;;;5031378;28;20128;-55
2023/08/25 12:17:47;;;;;;;9.43;4.88;;;20.20;99.90;;;;;;5031145;28;20030;-55
2023/08/25 12:20:17;;;;;;;18.67;9.05;;;20.20;99.90;;;;;;5031130;28;20033;-52
2023/08/25 12:22:56;;;;;;;6.55;3.40;;;20.20;99.90;;;;;;5031346;28;20033;-55
2023/08/25 12:25:22;;;;;;;13.45;4.97;;;20.20;99.90;;;;;;5031467;28;20037;-55
2023/08/25 12:27:51;;;;;;;7.20;2.10;;;20.20;99.90;;;;;;5030834;28;20091;-55
2023/08/25 12:30:17;;;;;;;15.70;8.10;;;20.20;99.90;;;;;;5031269;28;20371;-54
2023/08/25 12:32:43;;;;;;;7.80;4.45;;;20.20;99.90;;;;;;5030848;28;20039;-55
2023/08/25 12:35:09;;;;;;;11.60;6.05;;;20.20;99.90;;;;;;5031287;28;20056;-54
2023/08/25 12:37:34;;;;;;;5.75;2.67;;;20.10;99.90;;;;;;5030849;28;20022;-54
2023/08/25 12:40:00;;;;;;;4.20;1.80;;;20.20;99.90;;;;;;5031222;28;20052;-52
2023/08/25 12:42:25;;;;;;;3.53;2.05;;;20.10;99.90;;;;;;5030733;28;20102;-51
2023/08/25 12:44:51;;;;;;;3.90;1.77;;;20.20;99.90;;;;;;5030962;28;20042;-52
2023/08/25 12:47:17;;;;;;;4.57;2.25;;;20.40;99.90;;;;;;5030853;28;20029;-52